Main page
METAR-TAF:

METAR-TAF

Airports :

Nouakchott–Oumtounsy International Airport

Nouakchott, Mauritania

latitude: 18-18-36N, longitude: 015-58-11W, elevation: 3 m

Current weather observation

The report was made 33 minutes ago, at 11:00 UTC
Wind 7 kt from the West
Temperature 27°C
Humidity 74%
Pressure 1015 hPa
Visibility: 8000 m

METAR: GQNO 151100Z 26007KT 8000 NSC 27/22 Q1015 NOSIG

Time: 11:33 (11:33 UTC)

Forecast

The report was made 6 hours and 33 minutes ago, at 05:00 UTC
Forecast valid from 15 at 06 UTC to 16 at 12 UTC
Wind 10 kt from the Northwest
Visibility: 8000 m
Probability 40% :
Temporary
from 16 at 00 UTC to 16 at 09 UTC
Broken clouds at a height of 1000 ft

TAF: GQNO 150500Z 1506/1612 32010KT 8000 NSC PROB40 TEMPO 1600/1609 BKN010

Weather observations and forecasts of more than 4000 airports (METAR and TAF reports).

The available stations are represented by yellow and red dots on the map.

Hover mouse over dot to see the name of the station.

Then click to see weather observations and forecasts.

To change the map : click on the green buttons with a black cross to zoom in, on the green button with a dash to zoom out, or on the green arrows for adjacent maps.


METAR-TAF: